sensor_id;sensor_type;location;lat;lon;timestamp;P1;durP1;ratioP1;P2;durP2;ratioP2
23680;SDS011;62915;50.832;4.462;2023-07-09T00:01:14;8.52;;;5.25;;
23680;SDS011;62915;50.832;4.462;2023-07-09T00:03:42;11.32;;;6.05;;
23680;SDS011;62915;50.832;4.462;2023-07-09T00:06:16;7.53;;;5.43;;
23680;SDS011;62915;50.832;4.462;2023-07-09T00:08:43;9.38;;;5.70;;
23680;SDS011;62915;50.832;4.462;2023-07-09T00:11:11;9.57;;;5.50;;
23680;SDS011;62915;50.832;4.462;2023-07-09T00:13:37;6.68;;;5.22;;
23680;SDS011;62915;50.832;4.462;2023-07-09T00:16:03;10.88;;;5.40;;
23680;SDS011;62915;50.832;4.462;2023-07-09T00:18:37;13.85;;;5.20;;
23680;SDS011;62915;50.832;4.462;2023-07-09T00:21:02;7.03;;;5.30;;
23680;SDS011;62915;50.832;4.462;2023-07-09T00:23:28;6.40;;;5.20;;
23680;SDS011;62915;50.832;4.462;2023-07-09T00:25:54;9.32;;;5.22;;
23680;SDS011;62915;50.832;4.462;2023-07-09T00:28:22;9.43;;;5.95;;
23680;SDS011;62915;50.832;4.462;2023-07-09T00:30:48;9.25;;;5.97;;
23680;SDS011;62915;50.832;4.462;2023-07-09T00:33:15;9.40;;;6.22;;
23680;SDS011;62915;50.832;4.462;2023-07-09T00:35:45;9.75;;;5.82;;
23680;SDS011;62915;50.832;4.462;2023-07-09T00:38:14;8.88;;;5.68;;
23680;SDS011;62915;50.832;4.462;2023-07-09T00:40:46;10.48;;;5.88;;
23680;SDS011;62915;50.832;4.462;2023-07-09T00:43:24;12.82;;;6.28;;
23680;SDS011;62915;50.832;4.462;2023-07-09T00:48:49;10.07;;;5.47;;
23680;SDS011;62915;50.832;4.462;2023-07-09T00:51:19;7.63;;;5.50;;
23680;SDS011;62915;50.832;4.462;2023-07-09T00:53:47;10.73;;;6.72;;
23680;SDS011;62915;50.832;4.462;2023-07-09T00:56:17;9.55;;;6.30;;
23680;SDS011;62915;50.832;4.462;2023-07-09T00:58:58;7.97;;;6.18;;
23680;SDS011;62915;50.832;4.462;2023-07-09T01:01:29;11.30;;;6.15;;
23680;SDS011;62915;50.832;4.462;2023-07-09T01:03:57;9.27;;;6.25;;
23680;SDS011;62915;50.832;4.462;2023-07-09T01:06:30;9.32;;;6.68;;
23680;SDS011;62915;50.832;4.462;2023-07-09T01:09:08;10.20;;;6.55;;
23680;SDS011;62915;50.832;4.462;2023-07-09T01:11:34;7.47;;;6.20;;
23680;SDS011;62915;50.832;4.462;2023-07-09T01:14:03;10.38;;;6.50;;
23680;SDS011;62915;50.832;4.462;2023-07-09T01:16:32;9.27;;;6.20;;
23680;SDS011;62915;50.832;4.462;2023-07-09T01:19:02;12.40;;;6.20;;
23680;SDS011;62915;50.832;4.462;2023-07-09T01:21:29;8.90;;;6.53;;
23680;SDS011;62915;50.832;4.462;2023-07-09T01:23:56;7.43;;;6.30;;
23680;SDS011;62915;50.832;4.462;2023-07-09T01:26:23;7.75;;;6.28;;
23680;SDS011;62915;50.832;4.462;2023-07-09T01:28:51;10.93;;;6.57;;
23680;SDS011;62915;50.832;4.462;2023-07-09T01:31:20;8.00;;;6.03;;
23680;SDS011;62915;50.832;4.462;2023-07-09T01:33:48;10.40;;;6.40;;
23680;SDS011;62915;50.832;4.462;2023-07-09T01:36:16;14.80;;;6.10;;
23680;SDS011;62915;50.832;4.462;2023-07-09T01:38:47;9.45;;;6.00;;
23680;SDS011;62915;50.832;4.462;2023-07-09T01:41:14;9.85;;;5.40;;
23680;SDS011;62915;50.832;4.462;2023-07-09T01:43:41;6.22;;;5.47;;
23680;SDS011;62915;50.832;4.462;2023-07-09T01:46:08;5.65;;;5.10;;
23680;SDS011;62915;50.832;4.462;2023-07-09T01:48:34;9.43;;;5.90;;
23680;SDS011;62915;50.832;4.462;2023-07-09T01:51:06;11.77;;;5.80;;
23680;SDS011;62915;50.832;4.462;2023-07-09T01:53:35;10.15;;;5.95;;
23680;SDS011;62915;50.832;4.462;2023-07-09T01:56:04;11.25;;;6.25;;
23680;SDS011;62915;50.832;4.462;2023-07-09T01:58:32;13.85;;;5.60;;
23680;SDS011;62915;50.832;4.462;2023-07-09T02:00:59;9.15;;;5.50;;
23680;SDS011;62915;50.832;4.462;2023-07-09T02:03:25;9.65;;;5.55;;
23680;SDS011;62915;50.832;4.462;2023-07-09T02:05:52;7.63;;;5.10;;
23680;SDS011;62915;50.832;4.462;2023-07-09T02:08:18;12.38;;;5.13;;
23680;SDS011;62915;50.832;4.462;2023-07-09T02:10:45;8.32;;;5.28;;
23680;SDS011;62915;50.832;4.462;2023-07-09T02:13:13;7.32;;;5.00;;
23680;SDS011;62915;50.832;4.462;2023-07-09T02:15:39;6.55;;;5.10;;
23680;SDS011;62915;50.832;4.462;2023-07-09T02:18:10;12.68;;;5.50;;
23680;SDS011;62915;50.832;4.462;2023-07-09T02:20:36;9.95;;;5.20;;
23680;SDS011;62915;50.832;4.462;2023-07-09T02:23:02;8.23;;;5.15;;
23680;SDS011;62915;50.832;4.462;2023-07-09T02:25:28;10.10;;;5.40;;
23680;SDS011;62915;50.832;4.462;2023-07-09T02:27:54;11.65;;;5.15;;
23680;SDS011;62915;50.832;4.462;2023-07-09T02:30:19;8.10;;;5.35;;
23680;SDS011;62915;50.832;4.462;2023-07-09T02:32:45;9.88;;;5.50;;
23680;SDS011;62915;50.832;4.462;2023-07-09T02:35:11;7.85;;;5.18;;
23680;SDS011;62915;50.832;4.462;2023-07-09T02:37:37;8.90;;;5.63;;
23680;SDS011;62915;50.832;4.462;2023-07-09T02:40:04;10.15;;;5.80;;
23680;SDS011;62915;50.832;4.462;2023-07-09T02:42:30;12.80;;;5.90;;
23680;SDS011;62915;50.832;4.462;2023-07-09T02:44:55;11.10;;;6.35;;
23680;SDS011;62915;50.832;4.462;2023-07-09T02:47:21;12.68;;;5.97;;
23680;SDS011;62915;50.832;4.462;2023-07-09T02:49:47;8.65;;;6.30;;
23680;SDS011;62915;50.832;4.462;2023-07-09T02:52:13;12.68;;;6.20;;
23680;SDS011;62915;50.832;4.462;2023-07-09T02:54:39;9.48;;;6.38;;
23680;SDS011;62915;50.832;4.462;2023-07-09T02:57:05;9.85;;;5.85;;
23680;SDS011;62915;50.832;4.462;2023-07-09T02:59:31;9.85;;;5.72;;
23680;SDS011;62915;50.832;4.462;2023-07-09T03:01:58;10.68;;;6.18;;
23680;SDS011;62915;50.832;4.462;2023-07-09T03:04:24;8.07;;;6.03;;
23680;SDS011;62915;50.832;4.462;2023-07-09T03:06:50;8.02;;;6.00;;
23680;SDS011;62915;50.832;4.462;2023-07-09T03:09:16;10.02;;;6.07;;
23680;SDS011;62915;50.832;4.462;2023-07-09T03:11:41;12.95;;;6.05;;
23680;SDS011;62915;50.832;4.462;2023-07-09T03:14:07;11.10;;;6.57;;
23680;SDS011;62915;50.832;4.462;2023-07-09T03:16:33;7.10;;;5.60;;
23680;SDS011;62915;50.832;4.462;2023-07-09T03:19:00;9.57;;;5.40;;
23680;SDS011;62915;50.832;4.462;2023-07-09T03:21:28;11.05;;;5.60;;
23680;SDS011;62915;50.832;4.462;2023-07-09T03:23:54;11.63;;;6.07;;
23680;SDS011;62915;50.832;4.462;2023-07-09T03:26:20;9.10;;;5.80;;
23680;SDS011;62915;50.832;4.462;2023-07-09T03:28:46;15.30;;;5.97;;
23680;SDS011;62915;50.832;4.462;2023-07-09T03:31:12;7.80;;;5.95;;
23680;SDS011;62915;50.832;4.462;2023-07-09T03:33:38;9.80;;;5.78;;
23680;SDS011;62915;50.832;4.462;2023-07-09T03:36:04;11.88;;;5.22;;
23680;SDS011;62915;50.832;4.462;2023-07-09T03:38:30;7.90;;;5.75;;
23680;SDS011;62915;50.832;4.462;2023-07-09T03:40:56;8.98;;;5.50;;
23680;SDS011;62915;50.832;4.462;2023-07-09T03:43:22;7.65;;;5.88;;
23680;SDS011;62915;50.832;4.462;2023-07-09T03:45:49;10.82;;;6.30;;
23680;SDS011;62915;50.832;4.462;2023-07-09T03:48:16;10.93;;;6.50;;
23680;SDS011;62915;50.832;4.462;2023-07-09T03:50:43;8.48;;;6.10;;
23680;SDS011;62915;50.832;4.462;2023-07-09T03:53:10;10.50;;;5.50;;
23680;SDS011;62915;50.832;4.462;2023-07-09T03:55:37;8.98;;;6.28;;
23680;SDS011;62915;50.832;4.462;2023-07-09T03:58:03;7.93;;;5.53;;
23680;SDS011;62915;50.832;4.462;2023-07-09T04:00:29;9.48;;;5.68;;
23680;SDS011;62915;50.832;4.462;2023-07-09T04:02:56;9.13;;;6.30;;
23680;SDS011;62915;50.832;4.462;2023-07-09T04:05:22;10.13;;;5.95;;
23680;SDS011;62915;50.832;4.462;2023-07-09T04:07:49;7.20;;;5.75;;
23680;SDS011;62915;50.832;4.462;2023-07-09T04:10:15;7.88;;;5.30;;
23680;SDS011;62915;50.832;4.462;2023-07-09T04:12:41;11.13;;;6.40;;
23680;SDS011;62915;50.832;4.462;2023-07-09T04:15:06;9.63;;;5.93;;
23680;SDS011;62915;50.832;4.462;2023-07-09T04:17:32;11.80;;;6.50;;
23680;SDS011;62915;50.832;4.462;2023-07-09T04:19:58;10.63;;;6.13;;
23680;SDS011;62915;50.832;4.462;2023-07-09T04:22:24;8.75;;;6.13;;
23680;SDS011;62915;50.832;4.462;2023-07-09T04:24:50;16.60;;;6.35;;
23680;SDS011;62915;50.832;4.462;2023-07-09T04:27:17;10.90;;;6.07;;
23680;SDS011;62915;50.832;4.462;2023-07-09T04:29:43;8.95;;;5.72;;
23680;SDS011;62915;50.832;4.462;2023-07-09T04:32:13;8.52;;;6.13;;
23680;SDS011;62915;50.832;4.462;2023-07-09T04:34:40;11.10;;;6.22;;
23680;SDS011;62915;50.832;4.462;2023-07-09T04:37:06;8.32;;;6.55;;
23680;SDS011;62915;50.832;4.462;2023-07-09T04:39:34;10.60;;;5.68;;
23680;SDS011;62915;50.832;4.462;2023-07-09T04:42:00;11.77;;;5.72;;
23680;SDS011;62915;50.832;4.462;2023-07-09T04:44:26;9.60;;;6.15;;
23680;SDS011;62915;50.832;4.462;2023-07-09T04:46:53;10.07;;;6.07;;
23680;SDS011;62915;50.832;4.462;2023-07-09T04:49:19;8.57;;;6.07;;
23680;SDS011;62915;50.832;4.462;2023-07-09T04:51:44;9.88;;;6.15;;
23680;SDS011;62915;50.832;4.462;2023-07-09T04:54:10;11.63;;;6.10;;
23680;SDS011;62915;50.832;4.462;2023-07-09T04:56:36;9.13;;;6.00;;
23680;SDS011;62915;50.832;4.462;2023-07-09T04:59:02;9.63;;;6.43;;
23680;SDS011;62915;50.832;4.462;2023-07-09T05:01:28;10.13;;;6.55;;
23680;SDS011;62915;50.832;4.462;2023-07-09T05:03:54;15.27;;;6.78;;
23680;SDS011;62915;50.832;4.462;2023-07-09T05:06:20;9.73;;;6.40;;
23680;SDS011;62915;50.832;4.462;2023-07-09T05:08:47;9.82;;;6.75;;
23680;SDS011;62915;50.832;4.462;2023-07-09T05:11:13;11.02;;;6.22;;
23680;SDS011;62915;50.832;4.462;2023-07-09T05:13:40;12.52;;;6.60;;
23680;SDS011;62915;50.832;4.462;2023-07-09T05:16:06;13.52;;;6.32;;
23680;SDS011;62915;50.832;4.462;2023-07-09T05:18:32;14.18;;;6.60;;
23680;SDS011;62915;50.832;4.462;2023-07-09T05:20:57;12.65;;;6.93;;
23680;SDS011;62915;50.832;4.462;2023-07-09T05:23:26;12.23;;;6.80;;
23680;SDS011;62915;50.832;4.462;2023-07-09T05:25:59;10.00;;;6.72;;
23680;SDS011;62915;50.832;4.462;2023-07-09T05:28:26;11.38;;;6.65;;
23680;SDS011;62915;50.832;4.462;2023-07-09T05:30:53;10.23;;;7.13;;
23680;SDS011;62915;50.832;4.462;2023-07-09T05:33:19;11.68;;;6.72;;
23680;SDS011;62915;50.832;4.462;2023-07-09T05:35:45;9.07;;;6.47;;
23680;SDS011;62915;50.832;4.462;2023-07-09T05:38:11;8.98;;;6.50;;
23680;SDS011;62915;50.832;4.462;2023-07-09T05:40:38;8.07;;;6.30;;
23680;SDS011;62915;50.832;4.462;2023-07-09T05:43:04;10.73;;;6.07;;
23680;SDS011;62915;50.832;4.462;2023-07-09T05:45:30;13.75;;;6.63;;
23680;SDS011;62915;50.832;4.462;2023-07-09T05:47:57;10.55;;;6.28;;
23680;SDS011;62915;50.832;4.462;2023-07-09T05:50:24;9.93;;;6.35;;
23680;SDS011;62915;50.832;4.462;2023-07-09T05:52:50;11.60;;;5.63;;
23680;SDS011;62915;50.832;4.462;2023-07-09T05:55:15;7.72;;;5.75;;
23680;SDS011;62915;50.832;4.462;2023-07-09T05:57:41;9.63;;;6.38;;
23680;SDS011;62915;50.832;4.462;2023-07-09T06:00:07;9.38;;;6.05;;
23680;SDS011;62915;50.832;4.462;2023-07-09T06:02:33;9.45;;;5.88;;
23680;SDS011;62915;50.832;4.462;2023-07-09T06:04:59;8.18;;;5.72;;
23680;SDS011;62915;50.832;4.462;2023-07-09T06:07:25;10.00;;;6.10;;
23680;SDS011;62915;50.832;4.462;2023-07-09T06:09:52;8.40;;;5.47;;
23680;SDS011;62915;50.832;4.462;2023-07-09T06:12:18;10.38;;;5.90;;
23680;SDS011;62915;50.832;4.462;2023-07-09T06:14:45;9.13;;;5.93;;
23680;SDS011;62915;50.832;4.462;2023-07-09T06:17:11;13.57;;;5.68;;
23680;SDS011;62915;50.832;4.462;2023-07-09T06:19:38;12.02;;;6.28;;
23680;SDS011;62915;50.832;4.462;2023-07-09T06:22:04;7.38;;;5.47;;
23680;SDS011;62915;50.832;4.462;2023-07-09T06:24:30;7.47;;;5.43;;
23680;SDS011;62915;50.832;4.462;2023-07-09T06:26:56;10.93;;;5.78;;
23680;SDS011;62915;50.832;4.462;2023-07-09T06:29:24;13.82;;;6.82;;
23680;SDS011;62915;50.832;4.462;2023-07-09T06:31:49;7.82;;;5.70;;
23680;SDS011;62915;50.832;4.462;2023-07-09T06:34:15;11.63;;;5.97;;
23680;SDS011;62915;50.832;4.462;2023-07-09T06:36:41;11.60;;;6.05;;
23680;SDS011;62915;50.832;4.462;2023-07-09T06:39:07;11.60;;;5.80;;
23680;SDS011;62915;50.832;4.462;2023-07-09T06:41:32;7.97;;;5.22;;
23680;SDS011;62915;50.832;4.462;2023-07-09T06:44:04;12.30;;;6.53;;
23680;SDS011;62915;50.832;4.462;2023-07-09T06:46:31;10.57;;;6.15;;
23680;SDS011;62915;50.832;4.462;2023-07-09T06:49:06;10.57;;;5.35;;
23680;SDS011;62915;50.832;4.462;2023-07-09T06:51:33;8.75;;;6.15;;
23680;SDS011;62915;50.832;4.462;2023-07-09T06:53:59;11.10;;;6.28;;
23680;SDS011;62915;50.832;4.462;2023-07-09T06:56:25;9.13;;;5.78;;
23680;SDS011;62915;50.832;4.462;2023-07-09T06:58:51;14.68;;;5.97;;
23680;SDS011;62915;50.832;4.462;2023-07-09T07:01:16;11.25;;;5.82;;
23680;SDS011;62915;50.832;4.462;2023-07-09T07:03:42;12.27;;;5.80;;
23680;SDS011;62915;50.832;4.462;2023-07-09T07:06:08;8.85;;;5.72;;
23680;SDS011;62915;50.832;4.462;2023-07-09T07:08:34;10.38;;;5.78;;
23680;SDS011;62915;50.832;4.462;2023-07-09T07:11:01;10.23;;;6.15;;
23680;SDS011;62915;50.832;4.462;2023-07-09T07:13:31;9.07;;;6.82;;
23680;SDS011;62915;50.832;4.462;2023-07-09T07:15:58;10.27;;;6.85;;
23680;SDS011;62915;50.832;4.462;2023-07-09T07:18:25;11.55;;;7.35;;
23680;SDS011;62915;50.832;4.462;2023-07-09T07:20:51;14.60;;;6.78;;
23680;SDS011;62915;50.832;4.462;2023-07-09T07:23:17;11.95;;;6.90;;
23680;SDS011;62915;50.832;4.462;2023-07-09T07:25:44;11.35;;;6.95;;
23680;SDS011;62915;50.832;4.462;2023-07-09T07:28:10;15.13;;;7.80;;
23680;SDS011;62915;50.832;4.462;2023-07-09T07:30:36;18.40;;;8.00;;
23680;SDS011;62915;50.832;4.462;2023-07-09T07:33:02;16.05;;;8.63;;
23680;SDS011;62915;50.832;4.462;2023-07-09T07:35:28;12.30;;;8.00;;
23680;SDS011;62915;50.832;4.462;2023-07-09T07:37:53;13.35;;;8.30;;
23680;SDS011;62915;50.832;4.462;2023-07-09T07:40:19;12.13;;;8.93;;
23680;SDS011;62915;50.832;4.462;2023-07-09T07:42:45;15.15;;;9.75;;
23680;SDS011;62915;50.832;4.462;2023-07-09T07:45:11;12.63;;;8.52;;
23680;SDS011;62915;50.832;4.462;2023-07-09T07:47:37;16.60;;;8.88;;
23680;SDS011;62915;50.832;4.462;2023-07-09T07:50:04;16.05;;;11.30;;
23680;SDS011;62915;50.832;4.462;2023-07-09T07:52:31;17.80;;;11.88;;
23680;SDS011;62915;50.832;4.462;2023-07-09T07:54:58;19.90;;;12.82;;
23680;SDS011;62915;50.832;4.462;2023-07-09T07:57:24;19.25;;;13.45;;
23680;SDS011;62915;50.832;4.462;2023-07-09T07:59:51;24.40;;;15.00;;
23680;SDS011;62915;50.832;4.462;2023-07-09T08:02:16;22.52;;;15.23;;
23680;SDS011;62915;50.832;4.462;2023-07-09T08:04:43;24.48;;;18.33;;
23680;SDS011;62915;50.832;4.462;2023-07-09T08:07:09;23.52;;;17.55;;
23680;SDS011;62915;50.832;4.462;2023-07-09T08:09:36;19.63;;;16.33;;
23680;SDS011;62915;50.832;4.462;2023-07-09T08:12:02;25.48;;;16.83;;
23680;SDS011;62915;50.832;4.462;2023-07-09T08:14:34;20.92;;;15.55;;
23680;SDS011;62915;50.832;4.462;2023-07-09T08:17:04;17.95;;;14.55;;
23680;SDS011;62915;50.832;4.462;2023-07-09T08:19:30;22.55;;;14.75;;
23680;SDS011;62915;50.832;4.462;2023-07-09T08:21:57;24.63;;;17.35;;
23680;SDS011;62915;50.832;4.462;2023-07-09T08:24:23;26.13;;;17.25;;
23680;SDS011;62915;50.832;4.462;2023-07-09T08:26:49;22.23;;;18.45;;
23680;SDS011;62915;50.832;4.462;2023-07-09T08:29:16;31.17;;;22.65;;
23680;SDS011;62915;50.832;4.462;2023-07-09T08:31:42;29.85;;;21.27;;
23680;SDS011;62915;50.832;4.462;2023-07-09T08:34:07;29.95;;;24.38;;
23680;SDS011;62915;50.832;4.462;2023-07-09T08:36:33;30.05;;;23.70;;
23680;SDS011;62915;50.832;4.462;2023-07-09T08:39:02;32.13;;;23.88;;
23680;SDS011;62915;50.832;4.462;2023-07-09T08:47:18;31.35;;;21.17;;
23680;SDS011;62915;50.832;4.462;2023-07-09T08:52:33;28.45;;;23.17;;
23680;SDS011;62915;50.832;4.462;2023-07-09T08:55:03;31.70;;;24.42;;
23680;SDS011;62915;50.832;4.462;2023-07-09T08:57:34;33.35;;;24.10;;
23680;SDS011;62915;50.832;4.462;2023-07-09T09:02:58;30.13;;;23.13;;
23680;SDS011;62915;50.832;4.462;2023-07-09T09:05:27;34.53;;;23.38;;
23680;SDS011;62915;50.832;4.462;2023-07-09T09:08:33;31.92;;;22.58;;
23680;SDS011;62915;50.832;4.462;2023-07-09T09:11:20;29.95;;;23.67;;
23680;SDS011;62915;50.832;4.462;2023-07-09T09:14:01;32.40;;;22.55;;
23680;SDS011;62915;50.832;4.462;2023-07-09T09:16:43;35.83;;;26.07;;
23680;SDS011;62915;50.832;4.462;2023-07-09T09:21:56;30.98;;;19.65;;
23680;SDS011;62915;50.832;4.462;2023-07-09T09:24:31;31.02;;;23.60;;
23680;SDS011;62915;50.832;4.462;2023-07-09T09:27:01;27.25;;;21.00;;
23680;SDS011;62915;50.832;4.462;2023-07-09T09:29:27;28.50;;;20.63;;
23680;SDS011;62915;50.832;4.462;2023-07-09T09:31:54;28.40;;;22.15;;
23680;SDS011;62915;50.832;4.462;2023-07-09T09:34:24;27.95;;;21.73;;
23680;SDS011;62915;50.832;4.462;2023-07-09T09:36:52;32.17;;;23.90;;
23680;SDS011;62915;50.832;4.462;2023-07-09T09:39:18;27.90;;;23.10;;
23680;SDS011;62915;50.832;4.462;2023-07-09T09:41:46;31.60;;;22.00;;
23680;SDS011;62915;50.832;4.462;2023-07-09T09:44:19;28.88;;;21.48;;
23680;SDS011;62915;50.832;4.462;2023-07-09T09:46:56;36.33;;;23.65;;
23680;SDS011;62915;50.832;4.462;2023-07-09T09:49:22;25.95;;;19.50;;
23680;SDS011;62915;50.832;4.462;2023-07-09T09:51:48;21.83;;;18.95;;
23680;SDS011;62915;50.832;4.462;2023-07-09T09:54:21;30.23;;;23.33;;
23680;SDS011;62915;50.832;4.462;2023-07-09T09:56:53;26.02;;;21.63;;
23680;SDS011;62915;50.832;4.462;2023-07-09T09:59:20;27.35;;;20.88;;
23680;SDS011;62915;50.832;4.462;2023-07-09T10:01:57;32.97;;;20.80;;
23680;SDS011;62915;50.832;4.462;2023-07-09T10:04:24;24.25;;;19.45;;
23680;SDS011;62915;50.832;4.462;2023-07-09T10:06:55;26.30;;;19.45;;
23680;SDS011;62915;50.832;4.462;2023-07-09T10:09:27;26.65;;;20.23;;
23680;SDS011;62915;50.832;4.462;2023-07-09T10:14:54;31.38;;;22.33;;
23680;SDS011;62915;50.832;4.462;2023-07-09T10:19:57;31.92;;;22.35;;
23680;SDS011;62915;50.832;4.462;2023-07-09T10:22:41;34.08;;;22.90;;
23680;SDS011;62915;50.832;4.462;2023-07-09T10:31:48;26.90;;;20.55;;
23680;SDS011;62915;50.832;4.462;2023-07-09T10:39:36;25.38;;;20.10;;
23680;SDS011;62915;50.832;4.462;2023-07-09T10:42:09;26.02;;;19.38;;
23680;SDS011;62915;50.832;4.462;2023-07-09T10:44:42;24.70;;;21.50;;
23680;SDS011;62915;50.832;4.462;2023-07-09T10:47:26;26.10;;;19.95;;
23680;SDS011;62915;50.832;4.462;2023-07-09T10:49:58;26.75;;;19.08;;
23680;SDS011;62915;50.832;4.462;2023-07-09T10:52:32;24.40;;;17.10;;
23680;SDS011;62915;50.832;4.462;2023-07-09T11:00:55;23.13;;;16.13;;
23680;SDS011;62915;50.832;4.462;2023-07-09T11:03:37;17.20;;;14.48;;
23680;SDS011;62915;50.832;4.462;2023-07-09T11:08:58;26.75;;;17.05;;
23680;SDS011;62915;50.832;4.462;2023-07-09T11:11:31;17.08;;;13.85;;
23680;SDS011;62915;50.832;4.462;2023-07-09T11:14:26;17.50;;;12.45;;
23680;SDS011;62915;50.832;4.462;2023-07-09T11:16:57;18.08;;;14.18;;
23680;SDS011;62915;50.832;4.462;2023-07-09T11:19:24;21.42;;;15.13;;
23680;SDS011;62915;50.832;4.462;2023-07-09T11:22:02;17.58;;;12.32;;
23680;SDS011;62915;50.832;4.462;2023-07-09T11:24:51;13.95;;;11.30;;
23680;SDS011;62915;50.832;4.462;2023-07-09T11:27:22;13.90;;;10.57;;
23680;SDS011;62915;50.832;4.462;2023-07-09T11:30:44;16.00;;;10.65;;
23680;SDS011;62915;50.832;4.462;2023-07-09T11:33:01;17.13;;;9.70;;
23680;SDS011;62915;50.832;4.462;2023-07-09T11:35:29;14.02;;;9.57;;
23680;SDS011;62915;50.832;4.462;2023-07-09T11:38:17;13.02;;;8.88;;
23680;SDS011;62915;50.832;4.462;2023-07-09T11:40:46;12.98;;;8.50;;
23680;SDS011;62915;50.832;4.462;2023-07-09T11:43:25;12.75;;;7.65;;
23680;SDS011;62915;50.832;4.462;2023-07-09T11:46:03;10.55;;;7.20;;
23680;SDS011;62915;50.832;4.462;2023-07-09T11:48:36;12.35;;;6.97;;
23680;SDS011;62915;50.832;4.462;2023-07-09T11:51:05;10.73;;;6.32;;
23680;SDS011;62915;50.832;4.462;2023-07-09T11:53:51;11.18;;;6.60;;
23680;SDS011;62915;50.832;4.462;2023-07-09T11:56:22;10.45;;;6.18;;
23680;SDS011;62915;50.832;4.462;2023-07-09T11:58:49;12.30;;;6.68;;
23680;SDS011;62915;50.832;4.462;2023-07-09T12:01:19;8.77;;;5.93;;
23680;SDS011;62915;50.832;4.462;2023-07-09T12:03:48;13.02;;;6.55;;
23680;SDS011;62915;50.832;4.462;2023-07-09T12:06:24;9.82;;;5.93;;
23680;SDS011;62915;50.832;4.462;2023-07-09T12:08:53;7.38;;;5.63;;
23680;SDS011;62915;50.832;4.462;2023-07-09T12:14:03;7.65;;;5.88;;
23680;SDS011;62915;50.832;4.462;2023-07-09T12:16:41;11.75;;;6.22;;
23680;SDS011;62915;50.832;4.462;2023-07-09T12:19:12;9.43;;;5.57;;
23680;SDS011;62915;50.832;4.462;2023-07-09T12:21:40;8.18;;;5.68;;
23680;SDS011;62915;50.832;4.462;2023-07-09T12:24:29;11.63;;;6.15;;
23680;SDS011;62915;50.832;4.462;2023-07-09T12:27:02;11.98;;;6.32;;
23680;SDS011;62915;50.832;4.462;2023-07-09T12:29:40;19.55;;;7.88;;
23680;SDS011;62915;50.832;4.462;2023-07-09T12:32:11;16.45;;;7.93;;
23680;SDS011;62915;50.832;4.462;2023-07-09T12:34:39;10.85;;;7.75;;
23680;SDS011;62915;50.832;4.462;2023-07-09T12:37:04;13.20;;;8.10;;
23680;SDS011;62915;50.832;4.462;2023-07-09T12:39:32;12.48;;;9.10;;
23680;SDS011;62915;50.832;4.462;2023-07-09T12:42:02;14.45;;;9.52;;
23680;SDS011;62915;50.832;4.462;2023-07-09T12:44:29;13.95;;;9.30;;
23680;SDS011;62915;50.832;4.462;2023-07-09T12:46:59;13.95;;;9.55;;
23680;SDS011;62915;50.832;4.462;2023-07-09T12:49:29;17.95;;;9.90;;
23680;SDS011;62915;50.832;4.462;2023-07-09T12:52:02;15.70;;;10.23;;
23680;SDS011;62915;50.832;4.462;2023-07-09T12:54:29;18.13;;;10.50;;
23680;SDS011;62915;50.832;4.462;2023-07-09T12:56:56;19.02;;;10.20;;
23680;SDS011;62915;50.832;4.462;2023-07-09T12:59:28;15.38;;;10.18;;
23680;SDS011;62915;50.832;4.462;2023-07-09T13:02:07;18.20;;;10.25;;
23680;SDS011;62915;50.832;4.462;2023-07-09T13:04:45;15.75;;;10.43;;
23680;SDS011;62915;50.832;4.462;2023-07-09T13:07:45;15.60;;;10.40;;
23680;SDS011;62915;50.832;4.462;2023-07-09T13:10:07;15.75;;;9.93;;
23680;SDS011;62915;50.832;4.462;2023-07-09T13:12:44;16.33;;;11.50;;
23680;SDS011;62915;50.832;4.462;2023-07-09T13:15:21;15.15;;;11.30;;
23680;SDS011;62915;50.832;4.462;2023-07-09T13:17:47;17.85;;;11.35;;
23680;SDS011;62915;50.832;4.462;2023-07-09T13:20:13;13.77;;;10.40;;
23680;SDS011;62915;50.832;4.462;2023-07-09T13:22:38;14.88;;;11.65;;
23680;SDS011;62915;50.832;4.462;2023-07-09T13:25:07;17.08;;;12.75;;
23680;SDS011;62915;50.832;4.462;2023-07-09T13:27:33;19.55;;;12.43;;
23680;SDS011;62915;50.832;4.462;2023-07-09T13:29:59;18.98;;;12.82;;
23680;SDS011;62915;50.832;4.462;2023-07-09T13:32:25;20.63;;;12.73;;
23680;SDS011;62915;50.832;4.462;2023-07-09T13:34:51;22.65;;;11.88;;
23680;SDS011;62915;50.832;4.462;2023-07-09T13:37:16;20.20;;;13.25;;
23680;SDS011;62915;50.832;4.462;2023-07-09T13:39:42;18.73;;;12.65;;
23680;SDS011;62915;50.832;4.462;2023-07-09T13:42:11;17.17;;;12.13;;
23680;SDS011;62915;50.832;4.462;2023-07-09T13:44:39;18.00;;;11.88;;
23680;SDS011;62915;50.832;4.462;2023-07-09T13:47:16;18.27;;;11.90;;
23680;SDS011;62915;50.832;4.462;2023-07-09T13:49:43;19.45;;;13.23;;
23680;SDS011;62915;50.832;4.462;2023-07-09T13:52:18;21.92;;;12.63;;
23680;SDS011;62915;50.832;4.462;2023-07-09T13:54:45;18.42;;;12.55;;
23680;SDS011;62915;50.832;4.462;2023-07-09T13:57:16;15.63;;;11.68;;
23680;SDS011;62915;50.832;4.462;2023-07-09T13:59:44;20.20;;;11.52;;
23680;SDS011;62915;50.832;4.462;2023-07-09T14:02:23;17.00;;;12.18;;
23680;SDS011;62915;50.832;4.462;2023-07-09T14:04:56;18.83;;;10.75;;
23680;SDS011;62915;50.832;4.462;2023-07-09T14:07:33;16.88;;;11.70;;
23680;SDS011;62915;50.832;4.462;2023-07-09T14:10:01;15.00;;;10.82;;
23680;SDS011;62915;50.832;4.462;2023-07-09T14:12:29;16.55;;;11.20;;
23680;SDS011;62915;50.832;4.462;2023-07-09T14:14:56;16.70;;;11.63;;
23680;SDS011;62915;50.832;4.462;2023-07-09T14:17:25;16.88;;;11.35;;
23680;SDS011;62915;50.832;4.462;2023-07-09T14:19:51;20.25;;;11.23;;
23680;SDS011;62915;50.832;4.462;2023-07-09T14:24:43;17.02;;;11.82;;
23680;SDS011;62915;50.832;4.462;2023-07-09T14:27:09;17.75;;;12.05;;
23680;SDS011;62915;50.832;4.462;2023-07-09T14:29:35;16.58;;;12.45;;
23680;SDS011;62915;50.832;4.462;2023-07-09T14:32:01;18.90;;;12.25;;
23680;SDS011;62915;50.832;4.462;2023-07-09T14:34:28;18.42;;;12.85;;
23680;SDS011;62915;50.832;4.462;2023-07-09T14:36:59;16.45;;;10.10;;
23680;SDS011;62915;50.832;4.462;2023-07-09T14:39:26;10.75;;;8.82;;
23680;SDS011;62915;50.832;4.462;2023-07-09T14:41:53;16.40;;;9.18;;
23680;SDS011;62915;50.832;4.462;2023-07-09T14:44:29;17.23;;;10.25;;
23680;SDS011;62915;50.832;4.462;2023-07-09T14:47:00;14.25;;;9.07;;
23680;SDS011;62915;50.832;4.462;2023-07-09T14:49:28;14.25;;;9.35;;
23680;SDS011;62915;50.832;4.462;2023-07-09T14:51:54;16.50;;;10.18;;
23680;SDS011;62915;50.832;4.462;2023-07-09T14:56:47;14.75;;;9.80;;
23680;SDS011;62915;50.832;4.462;2023-07-09T14:59:14;14.80;;;9.80;;
23680;SDS011;62915;50.832;4.462;2023-07-09T15:01:40;14.93;;;10.25;;
23680;SDS011;62915;50.832;4.462;2023-07-09T15:04:14;16.60;;;10.52;;
23680;SDS011;62915;50.832;4.462;2023-07-09T15:06:51;13.48;;;9.75;;
23680;SDS011;62915;50.832;4.462;2023-07-09T15:09:19;11.20;;;8.00;;
23680;SDS011;62915;50.832;4.462;2023-07-09T15:11:48;15.55;;;9.82;;
23680;SDS011;62915;50.832;4.462;2023-07-09T15:14:16;11.50;;;8.65;;
23680;SDS011;62915;50.832;4.462;2023-07-09T15:16:42;13.43;;;7.88;;
23680;SDS011;62915;50.832;4.462;2023-07-09T15:19:14;16.50;;;8.90;;
23680;SDS011;62915;50.832;4.462;2023-07-09T15:21:42;13.48;;;8.50;;
23680;SDS011;62915;50.832;4.462;2023-07-09T15:24:13;12.32;;;7.53;;
23680;SDS011;62915;50.832;4.462;2023-07-09T15:26:52;12.20;;;8.68;;
23680;SDS011;62915;50.832;4.462;2023-07-09T15:29:21;13.07;;;8.77;;
23680;SDS011;62915;50.832;4.462;2023-07-09T15:31:49;16.40;;;9.15;;
23680;SDS011;62915;50.832;4.462;2023-07-09T15:34:15;14.48;;;8.80;;